Terminal Aerodrome Forecast
Issued by NWS Binghamton, NY

Home | Current Version | Previous Version | Text Only | Print | Product List | Glossary On
Versions: 1 2 3 4 5 6 7 8 9 10 11 12 13 14 15 16 17 18 19 20 21 22
470
FTUS41 KBGM 282334
TAFAVP
TAF
KAVP 282334Z 2900/2924 15006KT P6SM -SHRA BKN035 OVC050
     FM290300 15005KT P6SM -SHRA OVC025
     FM290600 15005KT 5SM -RA BR OVC012
     FM291400 VRB05KT P6SM SCT008 OVC015
     FM291900 21006KT P6SM BKN030=

USA.gov is the U.S. government's official web portal to all federal, state and local government web resources and services.